Time;durP1;ratioP1;P1;durP2;ratioP2;P2;SDS_P1;SDS_P2;PMS_P1;PMS_P2;Temp;Humidity;BMP_temperature;BMP_pressure;BME280_temperature;BME280_humidity;BME280_pressure;Samples;Min_cycle;Max_cycle;Signal;HPM_P1;HPM_P2
2023/06/17 00:01:15;;;;;;;17.70;16.00;;;17.20;99.90;;;;;;5047910;28;20441;-73
2023/06/17 00:03:42;;;;;;;20.77;16.38;;;17.20;99.90;;;;;;5043329;28;20530;-72
2023/06/17 00:06:10;;;;;;;16.27;14.47;;;17.20;99.90;;;;;;5039811;28;20665;-72
2023/06/17 00:08:37;;;;;;;20.67;16.40;;;17.20;99.90;;;;;;5038169;28;20545;-70
2023/06/17 00:11:05;;;;;;;20.97;17.77;;;17.20;99.90;;;;;;5037699;28;20453;-70
2023/06/17 00:13:32;;;;;;;25.07;17.90;;;17.10;99.90;;;;;;5037113;28;20491;-71
2023/06/17 00:16:00;;;;;;;18.38;16.52;;;17.10;99.90;;;;;;5031937;28;20507;-72
2023/06/17 00:18:28;;;;;;;18.57;16.53;;;17.10;99.90;;;;;;5051130;28;20263;-72
2023/06/17 00:20:57;;;;;;;19.97;17.90;;;17.00;99.90;;;;;;5041230;28;20460;-73
2023/06/17 00:23:25;;;;;;;18.33;16.43;;;17.00;99.90;;;;;;5042957;28;20932;-75
2023/06/17 00:25:52;;;;;;;21.37;19.13;;;17.00;99.90;;;;;;5043490;28;20863;-72
2023/06/17 00:28:19;;;;;;;21.38;19.10;;;16.90;99.90;;;;;;5037180;28;20444;-71
2023/06/17 00:30:48;;;;;;;24.60;16.57;;;16.90;99.90;;;;;;5038325;28;20198;-72
2023/06/17 00:33:15;;;;;;;21.10;18.80;;;16.90;99.90;;;;;;5041473;28;20475;-72
2023/06/17 00:35:41;;;;;;;23.90;16.20;;;16.90;99.90;;;;;;5039999;28;20954;-73
2023/06/17 00:38:08;;;;;;;26.35;19.55;;;16.90;99.90;;;;;;5035361;28;20532;-73
2023/06/17 00:40:36;;;;;;;20.60;18.40;;;17.00;99.90;;;;;;5022014;28;20208;-72
2023/06/17 00:43:03;;;;;;;20.15;18.25;;;16.90;99.90;;;;;;5047219;28;20564;-72
2023/06/17 00:45:30;;;;;;;18.13;16.43;;;17.00;99.90;;;;;;5043110;28;20765;-74
2023/06/17 00:47:59;;;;;;;20.00;18.00;;;17.10;99.90;;;;;;5041563;28;20889;-72
2023/06/17 00:50:28;;;;;;;20.43;18.43;;;17.10;99.90;;;;;;5031863;28;20449;-73
2023/06/17 00:52:55;;;;;;;22.30;19.90;;;17.20;99.90;;;;;;5041650;28;20829;-73
2023/06/17 00:55:23;;;;;;;22.73;20.53;;;17.30;99.90;;;;;;5031803;28;20544;-72
2023/06/17 00:57:53;;;;;;;21.63;19.20;;;17.40;99.90;;;;;;5030483;28;20464;-73
2023/06/17 01:00:20;;;;;;;24.17;20.30;;;17.40;99.90;;;;;;5035343;28;20477;-73
2023/06/17 01:02:47;;;;;;;20.77;18.47;;;17.50;99.90;;;;;;5033029;28;20538;-73
2023/06/17 01:05:17;;;;;;;26.73;22.90;;;17.50;99.90;;;;;;5045693;28;20456;-73
2023/06/17 01:07:52;;;;;;;30.13;22.87;;;17.60;99.90;;;;;;5034351;28;20549;-73
2023/06/17 01:10:38;;;;;;;25.63;23.13;;;17.60;99.90;;;;;;5039679;28;20474;-74
2023/06/17 01:13:06;;;;;;;29.20;22.63;;;17.60;99.90;;;;;;5034458;28;20836;-71
2023/06/17 01:15:35;;;;;;;25.97;22.57;;;17.60;99.90;;;;;;5029914;28;20541;-72
2023/06/17 01:18:04;;;;;;;25.33;21.23;;;17.70;99.90;;;;;;5041659;28;20477;-71
2023/06/17 01:20:32;;;;;;;22.20;19.60;;;17.70;99.90;;;;;;5032487;28;20481;-72
2023/06/17 01:23:01;;;;;;;26.00;22.67;;;17.70;99.90;;;;;;5042204;28;20513;-71
2023/06/17 01:25:31;;;;;;;25.10;20.90;;;17.80;99.90;;;;;;5030002;28;20534;-70
2023/06/17 01:28:00;;;;;;;29.20;22.80;;;17.80;99.90;;;;;;5030994;28;20597;-73
2023/06/17 01:30:30;;;;;;;30.53;23.23;;;17.70;99.90;;;;;;5034247;28;20447;-74
2023/06/17 01:32:58;;;;;;;27.63;22.03;;;17.70;99.90;;;;;;5047122;28;20556;-73
2023/06/17 01:35:30;;;;;;;23.23;20.90;;;17.80;99.90;;;;;;5046656;28;20508;-73
2023/06/17 01:38:06;;;;;;;28.10;22.70;;;17.80;99.90;;;;;;5040997;28;21046;-72
2023/06/17 01:40:35;;;;;;;23.63;21.20;;;17.80;99.90;;;;;;5049543;28;20472;-72
2023/06/17 01:43:05;;;;;;;24.70;21.53;;;17.80;99.90;;;;;;5037750;28;20473;-73
2023/06/17 01:45:33;;;;;;;27.20;22.43;;;17.80;99.90;;;;;;5041687;28;20480;-71
2023/06/17 01:48:00;;;;;;;26.70;23.00;;;17.80;99.90;;;;;;5036027;28;20509;-73
2023/06/17 01:50:27;;;;;;;27.10;24.20;;;17.80;99.90;;;;;;5045705;28;20934;-72
2023/06/17 01:52:54;;;;;;;21.93;19.57;;;17.80;99.90;;;;;;5041579;28;20971;-73
2023/06/17 01:55:21;;;;;;;30.57;23.47;;;17.80;99.90;;;;;;5045739;28;20521;-72
2023/06/17 01:57:49;;;;;;;27.10;24.20;;;17.70;99.90;;;;;;5039106;28;20553;-72
2023/06/17 02:00:16;;;;;;;26.77;24.03;;;17.70;99.90;;;;;;5032135;28;20483;-71
2023/06/17 02:02:43;;;;;;;30.90;23.97;;;17.60;99.90;;;;;;5047317;28;20466;-71
2023/06/17 02:05:10;;;;;;;27.63;24.00;;;17.60;99.90;;;;;;5034100;28;20962;-74
2023/06/17 02:07:38;;;;;;;31.00;27.87;;;17.50;99.90;;;;;;5026676;28;20542;-72
2023/06/17 02:10:05;;;;;;;26.80;24.00;;;17.50;99.90;;;;;;5032785;28;20476;-74
2023/06/17 02:12:33;;;;;;;28.07;24.93;;;17.50;99.90;;;;;;5027847;28;20546;-72
2023/06/17 02:15:02;;;;;;;27.70;24.87;;;17.50;99.90;;;;;;5042424;28;20482;-70
2023/06/17 02:17:28;;;;;;;28.67;24.17;;;17.50;99.90;;;;;;5023371;28;20481;-71
2023/06/17 02:19:56;;;;;;;27.50;21.20;;;17.50;99.90;;;;;;5035707;28;20476;-72
2023/06/17 02:22:23;;;;;;;24.37;20.90;;;17.50;99.90;;;;;;5035076;28;20949;-72
2023/06/17 02:24:50;;;;;;;26.00;23.07;;;17.50;99.90;;;;;;5038253;28;20442;-73
2023/06/17 02:27:17;;;;;;;27.63;25.03;;;17.50;99.90;;;;;;5034744;28;20449;-71
2023/06/17 02:29:45;;;;;;;24.80;22.40;;;17.50;99.90;;;;;;5025691;28;20442;-71
2023/06/17 02:32:13;;;;;;;22.43;20.03;;;17.50;99.90;;;;;;5043886;28;20449;-72
2023/06/17 02:34:42;;;;;;;27.80;24.83;;;17.50;99.90;;;;;;5029452;28;20534;-72
2023/06/17 02:37:09;;;;;;;22.03;19.80;;;17.50;99.90;;;;;;5033431;28;20580;-73
2023/06/17 02:39:36;;;;;;;24.80;22.27;;;17.50;99.90;;;;;;5033790;28;20999;-71
2023/06/17 02:42:04;;;;;;;26.20;23.40;;;17.50;99.90;;;;;;5051866;28;20476;-72
2023/06/17 02:44:30;;;;;;;24.93;21.60;;;17.50;99.90;;;;;;5041994;28;20205;-73
2023/06/17 02:46:57;;;;;;;25.37;21.80;;;17.40;99.90;;;;;;5035293;28;20443;-72
2023/06/17 02:49:26;;;;;;;23.73;21.40;;;17.40;99.90;;;;;;5036714;28;20448;-72
2023/06/17 02:51:53;;;;;;;23.43;21.03;;;17.40;99.90;;;;;;5037848;28;20444;-72
2023/06/17 02:54:20;;;;;;;29.97;23.80;;;17.30;99.90;;;;;;5038258;28;20536;-71
2023/06/17 02:56:47;;;;;;;34.33;28.10;;;17.30;99.90;;;;;;5039356;28;20454;-72
2023/06/17 02:59:16;;;;;;;27.70;24.83;;;17.30;99.90;;;;;;5027431;28;20442;-71
2023/06/17 03:01:44;;;;;;;26.17;23.17;;;17.30;99.90;;;;;;5038520;28;20454;-73
2023/06/17 03:04:11;;;;;;;27.05;23.52;;;17.40;99.90;;;;;;5041304;28;20469;-70
2023/06/17 03:06:40;;;;;;;28.43;25.33;;;17.40;99.90;;;;;;5036163;28;20293;-70
2023/06/17 03:09:08;;;;;;;26.90;24.13;;;17.40;99.90;;;;;;5027249;28;20516;-73
2023/06/17 03:11:35;;;;;;;26.33;23.73;;;17.50;99.90;;;;;;5036590;28;20437;-72
2023/06/17 03:14:03;;;;;;;26.07;23.67;;;17.40;99.90;;;;;;5035769;28;20552;-72
2023/06/17 03:16:33;;;;;;;24.80;22.40;;;17.40;99.90;;;;;;5038035;28;20453;-72
2023/06/17 03:18:59;;;;;;;22.77;20.57;;;17.50;99.90;;;;;;5032602;28;20475;-71
2023/06/17 03:21:29;;;;;;;25.70;23.10;;;17.60;99.90;;;;;;5034578;28;20532;-71
2023/06/17 03:23:57;;;;;;;25.77;22.97;;;17.60;99.90;;;;;;5038089;28;20482;-72
2023/06/17 03:26:25;;;;;;;27.50;23.77;;;17.70;99.90;;;;;;5029816;28;20531;-72
2023/06/17 03:28:53;;;;;;;28.60;24.87;;;17.70;99.90;;;;;;5034708;28;20480;-74
2023/06/17 03:31:21;;;;;;;37.20;25.70;;;17.70;99.90;;;;;;5027994;28;20538;-72
2023/06/17 03:33:48;;;;;;;27.93;24.17;;;17.70;99.90;;;;;;5033955;28;21007;-71
2023/06/17 03:36:17;;;;;;;29.83;24.47;;;17.60;99.90;;;;;;5039718;28;20453;-74
2023/06/17 03:38:45;;;;;;;25.70;22.13;;;17.70;99.90;;;;;;5039710;28;20442;-72
2023/06/17 03:41:13;;;;;;;26.50;22.60;;;17.70;99.90;;;;;;5036202;28;20467;-73
2023/06/17 03:43:40;;;;;;;24.80;22.20;;;17.80;99.90;;;;;;5039225;28;20481;-72
2023/06/17 03:46:07;;;;;;;26.37;23.60;;;17.80;99.90;;;;;;5026648;28;20486;-71
2023/06/17 03:48:34;;;;;;;26.00;23.37;;;17.80;99.90;;;;;;5031225;28;20449;-73
2023/06/17 03:51:02;;;;;;;26.60;23.07;;;17.70;99.90;;;;;;5035112;28;20581;-73
2023/06/17 03:53:29;;;;;;;27.93;23.43;;;17.70;99.90;;;;;;5033100;28;20569;-71
2023/06/17 03:55:56;;;;;;;26.13;23.37;;;17.80;99.90;;;;;;5033667;28;20462;-71
2023/06/17 03:58:24;;;;;;;23.13;20.80;;;17.80;99.90;;;;;;5040887;28;20461;-73
2023/06/17 04:00:51;;;;;;;28.20;22.80;;;17.80;99.90;;;;;;5042686;28;20473;-72
2023/06/17 04:03:19;;;;;;;25.73;23.03;;;17.80;99.90;;;;;;5040223;28;20470;-73
2023/06/17 04:05:46;;;;;;;22.57;20.17;;;17.80;99.90;;;;;;5040121;28;20813;-73
2023/06/17 04:08:13;;;;;;;23.93;21.27;;;17.80;99.90;;;;;;5044148;28;21029;-71
2023/06/17 04:10:41;;;;;;;22.33;20.03;;;17.90;99.90;;;;;;5041530;28;20448;-73
2023/06/17 04:13:07;;;;;;;24.13;21.23;;;17.90;99.90;;;;;;5044468;28;20480;-72
2023/06/17 04:15:36;;;;;;;28.47;22.47;;;17.90;99.90;;;;;;5025073;28;20523;-72
2023/06/17 04:18:03;;;;;;;24.17;21.70;;;17.90;99.90;;;;;;5041468;28;20455;-73
2023/06/17 04:20:34;;;;;;;25.03;22.50;;;17.90;99.90;;;;;;5028461;28;21036;-74
2023/06/17 04:23:01;;;;;;;25.40;21.50;;;17.90;99.90;;;;;;5037964;28;20557;-70
2023/06/17 04:25:32;;;;;;;24.90;22.00;;;18.00;99.90;;;;;;5041739;28;20932;-72
2023/06/17 04:28:01;;;;;;;27.13;24.23;;;17.90;99.90;;;;;;5040014;28;20554;-71
2023/06/17 04:30:28;;;;;;;27.00;24.23;;;17.90;99.90;;;;;;5038716;28;20446;-72
2023/06/17 04:33:00;;;;;;;26.57;23.70;;;17.90;99.90;;;;;;5036785;28;20465;-72
2023/06/17 04:35:27;;;;;;;23.37;20.37;;;18.00;99.90;;;;;;5048946;28;20442;-72
2023/06/17 04:37:54;;;;;;;24.43;21.83;;;18.00;99.90;;;;;;5047806;28;20907;-72
2023/06/17 04:40:22;;;;;;;23.67;21.00;;;18.00;99.90;;;;;;5041805;28;20485;-74
2023/06/17 04:42:49;;;;;;;29.63;23.30;;;18.00;99.90;;;;;;5039262;28;20959;-71
2023/06/17 04:45:17;;;;;;;27.67;23.43;;;17.90;99.90;;;;;;5039263;28;20987;-71
2023/06/17 04:47:44;;;;;;;24.70;22.20;;;17.80;99.90;;;;;;5038059;28;20446;-71
2023/06/17 04:50:15;;;;;;;29.93;22.37;;;17.90;99.90;;;;;;5035767;28;21006;-70
2023/06/17 04:52:43;;;;;;;23.80;21.20;;;17.90;99.90;;;;;;5043113;28;20463;-72
2023/06/17 04:55:13;;;;;;;26.00;22.00;;;18.00;99.90;;;;;;5036715;28;20442;-73
2023/06/17 04:57:41;;;;;;;25.93;21.90;;;18.00;99.90;;;;;;5044232;28;20454;-72
2023/06/17 05:00:10;;;;;;;24.60;21.27;;;18.00;99.90;;;;;;5039944;28;20478;-73
2023/06/17 05:02:37;;;;;;;27.27;23.60;;;18.00;99.90;;;;;;5042600;28;20541;-74
2023/06/17 05:05:05;;;;;;;26.63;21.20;;;18.00;99.90;;;;;;5038959;28;20444;-73
2023/06/17 05:07:33;;;;;;;24.23;20.27;;;18.00;99.90;;;;;;5038072;28;20884;-73
2023/06/17 05:10:00;;;;;;;24.93;21.27;;;18.10;99.90;;;;;;5038782;28;20940;-71
2023/06/17 05:12:27;;;;;;;28.43;20.73;;;18.10;99.90;;;;;;5033027;28;20468;-72
2023/06/17 05:14:54;;;;;;;21.30;19.00;;;18.20;99.90;;;;;;5038733;28;20534;-73
2023/06/17 05:17:21;;;;;;;18.87;16.93;;;18.30;99.90;;;;;;5036761;28;20525;-71
2023/06/17 05:19:48;;;;;;;21.70;19.30;;;18.30;99.90;;;;;;5034636;28;20521;-73
2023/06/17 05:22:15;;;;;;;26.10;20.50;;;18.50;99.90;;;;;;5030970;28;20477;-74
2023/06/17 05:24:43;;;;;;;20.67;18.50;;;18.50;99.90;;;;;;5032049;28;20539;-73
2023/06/17 05:27:10;;;;;;;22.40;19.27;;;18.50;99.90;;;;;;5044539;28;20545;-72
2023/06/17 05:29:37;;;;;;;20.23;17.70;;;18.60;99.90;;;;;;5024478;28;20538;-72
2023/06/17 05:32:04;;;;;;;20.43;17.40;;;18.60;99.90;;;;;;5041868;28;20521;-73
2023/06/17 05:34:31;;;;;;;19.47;16.77;;;18.70;99.90;;;;;;5038927;28;20446;-73
2023/06/17 05:36:58;;;;;;;19.37;16.53;;;18.80;99.90;;;;;;5048665;28;20493;-74
2023/06/17 05:39:25;;;;;;;19.70;16.03;;;18.90;99.90;;;;;;5035130;28;20527;-72
2023/06/17 05:41:53;;;;;;;16.63;15.00;;;18.90;99.90;;;;;;5043077;28;20471;-72
2023/06/17 05:44:20;;;;;;;17.27;15.37;;;18.90;99.90;;;;;;5046828;28;20443;-71
2023/06/17 05:46:47;;;;;;;24.33;17.17;;;19.00;99.90;;;;;;5032399;28;20479;-72
2023/06/17 05:49:14;;;;;;;21.50;18.87;;;19.00;99.90;;;;;;5042837;28;20446;-72
2023/06/17 05:51:41;;;;;;;25.70;17.03;;;19.00;99.90;;;;;;5039058;28;20446;-72
2023/06/17 05:54:08;;;;;;;18.87;15.93;;;19.00;99.90;;;;;;5033352;28;20480;-72
2023/06/17 05:56:35;;;;;;;25.07;16.63;;;19.00;99.90;;;;;;5042929;28;20452;-71
2023/06/17 05:59:03;;;;;;;17.77;15.90;;;19.00;99.90;;;;;;5036544;28;20868;-73
2023/06/17 06:01:30;;;;;;;17.77;15.90;;;19.00;99.90;;;;;;5035671;28;20934;-73
2023/06/17 06:03:58;;;;;;;20.23;14.33;;;19.20;99.90;;;;;;5033465;28;20542;-72
2023/06/17 06:06:25;;;;;;;21.73;16.70;;;19.30;99.90;;;;;;5043374;28;20459;-71
2023/06/17 06:08:52;;;;;;;16.73;14.93;;;19.30;99.90;;;;;;5036896;28;20484;-72
2023/06/17 06:11:18;;;;;;;19.73;16.43;;;19.30;99.90;;;;;;5041784;28;20518;-74
2023/06/17 06:13:45;;;;;;;19.50;15.20;;;19.40;99.90;;;;;;5042009;28;20472;-72
2023/06/17 06:16:13;;;;;;;18.70;14.80;;;19.30;99.90;;;;;;5032477;28;20510;-72
2023/06/17 06:18:40;;;;;;;18.90;16.27;;;19.40;99.90;;;;;;5037752;28;20897;-72
2023/06/17 06:21:07;;;;;;;17.13;15.43;;;19.50;99.90;;;;;;5038588;28;20562;-72
2023/06/17 06:23:35;;;;;;;18.63;15.90;;;19.60;99.90;;;;;;5045470;28;20472;-72
2023/06/17 06:26:02;;;;;;;18.90;15.40;;;19.60;99.90;;;;;;5039316;28;20529;-72
2023/06/17 06:28:29;;;;;;;22.40;15.70;;;19.60;99.90;;;;;;5033285;28;20536;-72
2023/06/17 06:30:56;;;;;;;18.17;14.90;;;19.70;99.90;;;;;;5035763;28;20444;-70
2023/06/17 06:33:24;;;;;;;16.30;14.60;;;19.80;99.90;;;;;;5033802;28;20501;-72
2023/06/17 06:35:51;;;;;;;17.07;15.43;;;19.90;99.90;;;;;;5041555;28;20448;-71
2023/06/17 06:38:18;;;;;;;18.70;15.77;;;20.10;99.90;;;;;;5045965;28;20450;-72
2023/06/17 06:40:45;;;;;;;19.60;17.37;;;20.10;99.90;;;;;;5039741;28;20492;-71
2023/06/17 06:43:12;;;;;;;29.27;18.60;;;20.10;99.90;;;;;;5028389;28;20466;-71
2023/06/17 06:45:38;;;;;;;24.67;19.80;;;20.10;99.90;;;;;;5043345;28;20478;-73
2023/06/17 06:48:06;;;;;;;20.40;17.90;;;20.00;99.90;;;;;;5038565;28;20807;-72
2023/06/17 06:50:34;;;;;;;18.60;16.40;;;19.90;99.90;;;;;;5038797;28;20448;-74
2023/06/17 06:53:02;;;;;;;20.07;17.37;;;19.80;99.90;;;;;;5038047;28;21043;-72
2023/06/17 06:55:29;;;;;;;18.33;16.57;;;19.90;99.90;;;;;;5033881;28;20793;-72
2023/06/17 06:57:57;;;;;;;20.17;18.10;;;19.90;99.90;;;;;;5037941;28;20519;-72
2023/06/17 07:00:24;;;;;;;20.00;17.90;;;20.00;99.90;;;;;;5035330;28;20534;-70
2023/06/17 07:02:51;;;;;;;23.23;19.60;;;20.10;99.90;;;;;;5047032;28;20480;-72
2023/06/17 07:05:18;;;;;;;26.57;20.87;;;20.10;99.90;;;;;;5043201;28;20921;-70
2023/06/17 07:07:46;;;;;;;28.10;20.13;;;20.30;99.90;;;;;;5018095;28;20444;-71
2023/06/17 07:10:13;;;;;;;21.63;19.27;;;20.30;99.90;;;;;;5037423;28;20529;-72
2023/06/17 07:12:42;;;;;;;26.50;19.97;;;20.30;99.90;;;;;;5038969;28;20558;-73
2023/06/17 07:15:09;;;;;;;22.70;18.90;;;20.40;99.90;;;;;;5039310;28;20893;-74
2023/06/17 07:17:36;;;;;;;23.50;19.20;;;20.50;99.90;;;;;;5034952;28;20801;-72
2023/06/17 07:20:05;;;;;;;20.00;17.80;;;20.50;99.90;;;;;;5032557;28;20543;-72
2023/06/17 07:22:31;;;;;;;20.63;18.10;;;20.70;99.90;;;;;;5043548;28;20499;-73
2023/06/17 07:25:00;;;;;;;22.43;17.70;;;20.70;99.90;;;;;;5037318;28;20448;-74
2023/06/17 07:27:27;;;;;;;23.70;19.83;;;20.80;99.90;;;;;;5044623;28;20442;-73
2023/06/17 07:29:53;;;;;;;24.93;19.10;;;20.80;99.90;;;;;;5036750;28;20886;-71
2023/06/17 07:32:20;;;;;;;17.43;15.63;;;20.70;99.90;;;;;;5039014;28;20457;-72
2023/06/17 07:34:48;;;;;;;19.07;16.80;;;20.70;99.90;;;;;;5041497;28;20925;-73
2023/06/17 07:37:15;;;;;;;23.30;19.90;;;20.70;99.90;;;;;;5044668;28;20450;-72
2023/06/17 07:39:42;;;;;;;26.17;21.13;;;20.60;99.90;;;;;;5037058;28;20980;-71
2023/06/17 07:42:10;;;;;;;22.90;18.60;;;20.70;99.90;;;;;;5044600;28;20492;-72
2023/06/17 07:44:37;;;;;;;26.73;18.93;;;20.70;99.90;;;;;;5043794;28;20979;-73
2023/06/17 07:47:04;;;;;;;20.50;17.37;;;20.70;99.90;;;;;;5044641;28;20458;-73
2023/06/17 07:49:31;;;;;;;30.60;20.50;;;20.70;99.90;;;;;;5038603;28;20783;-71
2023/06/17 07:51:58;;;;;;;25.20;19.90;;;20.80;99.90;;;;;;5041359;28;20800;-72
2023/06/17 07:54:25;;;;;;;22.90;19.70;;;20.70;99.90;;;;;;5044194;28;20819;-70
2023/06/17 07:56:52;;;;;;;21.43;18.63;;;20.60;99.90;;;;;;5043797;28;20775;-73
2023/06/17 07:59:20;;;;;;;21.20;17.70;;;20.70;99.90;;;;;;5040941;28;20476;-72
2023/06/17 08:01:47;;;;;;;28.43;20.07;;;20.80;99.90;;;;;;5035527;28;20569;-72
2023/06/17 08:04:14;;;;;;;25.80;20.77;;;21.00;99.90;;;;;;5042128;28;20466;-71
2023/06/17 08:06:41;;;;;;;25.33;21.63;;;21.20;99.90;;;;;;5031357;28;20467;-74
2023/06/17 08:09:09;;;;;;;19.70;17.70;;;21.30;99.90;;;;;;5039225;28;20927;-73
2023/06/17 08:11:36;;;;;;;22.00;18.73;;;21.60;99.90;;;;;;5036169;28;20493;-71
2023/06/17 08:14:03;;;;;;;25.33;19.73;;;21.80;99.90;;;;;;5043983;28;20512;-72
2023/06/17 08:16:31;;;;;;;22.83;20.50;;;22.00;99.90;;;;;;5041793;28;20964;-71
2023/06/17 08:18:58;;;;;;;20.97;18.83;;;22.20;99.90;;;;;;5034847;28;20536;-72
2023/06/17 08:21:26;;;;;;;22.87;19.47;;;22.30;99.90;;;;;;5040284;28;20575;-72
2023/06/17 08:23:53;;;;;;;22.13;19.67;;;22.50;99.90;;;;;;5045803;28;20473;-73
2023/06/17 08:26:20;;;;;;;22.80;19.60;;;22.50;99.90;;;;;;5042350;28;20482;-72
2023/06/17 08:28:46;;;;;;;22.53;19.60;;;22.50;99.90;;;;;;5041331;28;20442;-74
2023/06/17 08:31:13;;;;;;;28.23;25.40;;;22.60;99.90;;;;;;5038550;28;20961;-73
2023/06/17 08:33:41;;;;;;;27.27;24.47;;;22.80;99.90;;;;;;5036034;28;20577;-72
2023/06/17 08:36:08;;;;;;;22.37;20.13;;;22.70;99.90;;;;;;5038759;28;20538;-71
2023/06/17 08:38:35;;;;;;;21.73;19.50;;;22.90;99.90;;;;;;5042068;28;20477;-71
2023/06/17 08:41:02;;;;;;;22.40;19.50;;;23.10;99.90;;;;;;5035096;28;20526;-70
2023/06/17 08:43:30;;;;;;;22.83;18.30;;;23.20;99.90;;;;;;5036576;28;20462;-70
2023/06/17 08:45:59;;;;;;;21.47;17.57;;;23.30;99.90;;;;;;5036508;28;20453;-70
2023/06/17 08:48:26;;;;;;;24.20;20.80;;;23.50;99.90;;;;;;5043170;28;20454;-71
2023/06/17 08:50:55;;;;;;;22.50;20.10;;;23.70;99.90;;;;;;5038413;28;20557;-71
2023/06/17 08:53:23;;;;;;;25.23;19.87;;;23.40;99.90;;;;;;5039165;28;20458;-72
2023/06/17 08:55:50;;;;;;;22.13;20.00;;;23.50;99.90;;;;;;5040446;28;20453;-72
2023/06/17 08:58:17;;;;;;;21.90;19.67;;;23.50;99.90;;;;;;5039292;28;20885;-71
2023/06/17 09:00:44;;;;;;;25.97;21.97;;;23.10;99.90;;;;;;5031109;28;20439;-71
2023/06/17 09:03:13;;;;;;;23.43;21.03;;;22.90;99.90;;;;;;5039141;28;20488;-71
2023/06/17 09:05:40;;;;;;;22.70;20.40;;;22.90;99.90;;;;;;5036098;28;20446;-69
2023/06/17 09:08:08;;;;;;;26.83;21.10;;;23.20;99.90;;;;;;5041843;28;20446;-72
2023/06/17 09:10:45;;;;;;;24.90;22.30;;;23.70;99.90;;;;;;5036556;28;20435;-71
2023/06/17 09:13:12;;;;;;;23.57;21.10;;;24.00;99.90;;;;;;5037253;28;20465;-71
2023/06/17 09:15:44;;;;;;;25.70;21.27;;;24.30;99.90;;;;;;5037604;28;20434;-69
2023/06/17 09:18:11;;;;;;;25.23;20.73;;;24.40;99.90;;;;;;5032500;28;20439;-70
2023/06/17 09:20:39;;;;;;;26.43;19.60;;;24.50;99.90;;;;;;5042279;28;20446;-70
2023/06/17 09:23:18;;;;;;;22.53;19.93;;;24.70;99.90;;;;;;5031443;28;20604;-72
2023/06/17 09:25:45;;;;;;;24.07;21.57;;;25.60;98.50;;;;;;5019123;28;20446;-70
2023/06/17 09:28:13;;;;;;;20.70;18.67;;;26.20;96.20;;;;;;5037109;28;20464;-71
2023/06/17 09:30:42;;;;;;;24.50;20.77;;;26.90;95.00;;;;;;5044382;28;20819;-71
2023/06/17 09:33:18;;;;;;;22.10;19.60;;;27.50;93.00;;;;;;5037425;28;20470;-72
2023/06/17 09:35:45;;;;;;;23.90;19.20;;;27.30;92.30;;;;;;5038287;28;20442;-72
2023/06/17 09:38:17;;;;;;;23.07;18.43;;;27.40;92.10;;;;;;5045089;28;20496;-71
2023/06/17 09:40:44;;;;;;;19.23;17.20;;;27.80;91.80;;;;;;5038409;28;20447;-71
2023/06/17 09:43:13;;;;;;;25.90;18.90;;;28.20;91.10;;;;;;5038889;28;20562;-71
2023/06/17 09:45:40;;;;;;;23.57;19.80;;;28.10;90.30;;;;;;5040697;28;20447;-71
2023/06/17 09:48:09;;;;;;;19.60;17.63;;;27.90;90.40;;;;;;5031275;28;20909;-70
2023/06/17 09:50:39;;;;;;;18.03;16.37;;;27.40;90.80;;;;;;5040233;28;20458;-71
2023/06/17 09:53:06;;;;;;;20.97;18.43;;;27.40;91.10;;;;;;5034447;28;21007;-70
2023/06/17 09:55:36;;;;;;;21.20;19.13;;;27.90;90.50;;;;;;5029609;28;20818;-70
2023/06/17 09:58:05;;;;;;;22.90;17.97;;;28.80;88.90;;;;;;5036269;28;20462;-72
2023/06/17 10:00:32;;;;;;;19.60;17.60;;;29.50;87.30;;;;;;5037403;28;20443;-72
2023/06/17 10:03:00;;;;;;;17.97;16.30;;;30.30;84.90;;;;;;5032995;28;20493;-71
2023/06/17 10:05:27;;;;;;;18.37;16.53;;;30.50;83.00;;;;;;5034702;28;20818;-71
2023/06/17 10:07:56;;;;;;;19.97;18.17;;;30.40;82.00;;;;;;5040526;28;20538;-71
2023/06/17 10:10:24;;;;;;;21.80;19.50;;;30.20;81.80;;;;;;5033277;28;20450;-69
2023/06/17 10:12:57;;;;;;;20.97;18.40;;;29.80;82.10;;;;;;5040922;28;21046;-70
2023/06/17 10:15:26;;;;;;;19.47;17.47;;;29.20;84.00;;;;;;5032449;28;20529;-71
2023/06/17 10:17:53;;;;;;;20.70;18.40;;;29.30;85.10;;;;;;5039778;28;20543;-71
2023/06/17 10:20:22;;;;;;;21.23;19.23;;;29.70;83.90;;;;;;5037657;28;20450;-71
2023/06/17 10:22:54;;;;;;;19.30;16.73;;;30.20;82.40;;;;;;5038104;28;20489;-70
2023/06/17 10:25:23;;;;;;;19.03;17.27;;;30.30;81.70;;;;;;5034836;28;20892;-70
2023/06/17 10:27:50;;;;;;;19.93;17.40;;;29.90;81.80;;;;;;5036921;28;20435;-70
2023/06/17 10:30:26;;;;;;;18.23;16.50;;;29.70;83.20;;;;;;5031513;28;20443;-71
2023/06/17 10:32:55;;;;;;;20.90;18.80;;;30.20;82.30;;;;;;5032460;28;20471;-70
2023/06/17 10:35:22;;;;;;;21.43;19.20;;;29.60;82.50;;;;;;5031623;28;20542;-69
2023/06/17 10:37:50;;;;;;;20.93;18.77;;;29.50;83.20;;;;;;5039027;28;20534;-71
2023/06/17 10:40:30;;;;;;;24.70;17.30;;;29.20;83.30;;;;;;5033782;28;20473;-71
2023/06/17 10:43:21;;;;;;;22.57;20.17;;;29.20;83.70;;;;;;5037082;28;20570;-70
2023/06/17 10:45:53;;;;;;;23.00;18.03;;;28.70;84.30;;;;;;5035839;28;20636;-71
2023/06/17 10:48:23;;;;;;;19.00;17.03;;;28.20;85.90;;;;;;5032624;28;20814;-70
2023/06/17 10:50:55;;;;;;;21.57;17.90;;;28.20;86.10;;;;;;5038677;28;20449;-70
2023/06/17 10:53:30;;;;;;;21.17;19.07;;;28.00;86.50;;;;;;5034916;28;20471;-70
2023/06/17 10:55:58;;;;;;;21.33;19.07;;;27.90;86.20;;;;;;5036196;28;20437;-71
2023/06/17 10:58:32;;;;;;;19.43;16.00;;;27.80;87.10;;;;;;5033703;28;20447;-71
2023/06/17 11:01:04;;;;;;;21.13;17.50;;;27.80;87.20;;;;;;5031245;28;20961;-71
2023/06/17 11:03:32;;;;;;;20.23;17.67;;;27.90;86.80;;;;;;5039418;28;21046;-71
2023/06/17 11:06:03;;;;;;;23.33;18.40;;;27.90;86.90;;;;;;5033084;28;20462;-72
2023/06/17 11:08:31;;;;;;;19.73;17.47;;;27.70;86.70;;;;;;5034661;28;20454;-71
2023/06/17 11:11:11;;;;;;;18.90;17.00;;;27.70;87.20;;;;;;5032718;28;20448;-71
2023/06/17 11:13:39;;;;;;;21.03;17.73;;;27.40;87.70;;;;;;5042003;28;20469;-71
2023/06/17 11:16:08;;;;;;;19.37;17.33;;;27.10;88.70;;;;;;5033383;28;20451;-71
2023/06/17 11:18:38;;;;;;;18.23;14.60;;;27.00;89.30;;;;;;5039738;28;20435;-71
2023/06/17 11:21:06;;;;;;;16.07;14.30;;;27.10;90.10;;;;;;5032826;28;20866;-70
2023/06/17 11:23:33;;;;;;;16.73;14.63;;;27.20;89.20;;;;;;5034983;28;20487;-72
2023/06/17 11:26:01;;;;;;;18.67;15.43;;;27.30;88.80;;;;;;5036793;28;20963;-71
2023/06/17 11:28:28;;;;;;;26.53;23.00;;;27.20;88.30;;;;;;5035178;28;20443;-71
2023/06/17 11:30:56;;;;;;;17.60;15.60;;;27.20;88.70;;;;;;5034166;28;20499;-72
2023/06/17 11:33:25;;;;;;;23.53;19.53;;;27.10;89.30;;;;;;5037520;28;20461;-72
2023/06/17 11:35:53;;;;;;;17.10;14.37;;;27.10;89.50;;;;;;5043634;28;20447;-71
2023/06/17 11:38:22;;;;;;;23.87;17.37;;;27.10;89.70;;;;;;5039692;28;20446;-71
2023/06/17 11:40:53;;;;;;;18.70;15.83;;;27.10;89.50;;;;;;5040865;28;20446;-71
2023/06/17 11:43:24;;;;;;;26.93;18.73;;;27.10;89.20;;;;;;5033485;28;20526;-71
2023/06/17 11:45:52;;;;;;;18.47;15.73;;;27.00;90.00;;;;;;5041790;28;20790;-71
2023/06/17 11:48:19;;;;;;;22.43;16.53;;;27.10;90.10;;;;;;5033086;28;20529;-71
2023/06/17 11:50:47;;;;;;;18.90;16.47;;;27.20;90.10;;;;;;5036524;28;20509;-70
2023/06/17 11:53:13;;;;;;;23.80;17.90;;;27.20;89.50;;;;;;5034703;28;20471;-71
2023/06/17 11:55:44;;;;;;;20.07;16.00;;;27.20;88.90;;;;;;5029424;28;20548;-71
2023/06/17 11:58:12;;;;;;;20.33;16.30;;;26.80;89.00;;;;;;5036064;28;20943;-70
2023/06/17 12:00:38;;;;;;;18.87;16.27;;;26.50;90.00;;;;;;5035987;28;20447;-70
2023/06/17 12:03:06;;;;;;;20.70;16.90;;;26.40;90.20;;;;;;5039250;28;20492;-71
2023/06/17 12:05:33;;;;;;;26.80;16.73;;;26.30;90.60;;;;;;5036034;28;20450;-71
2023/06/17 12:08:02;;;;;;;20.53;16.37;;;26.40;90.60;;;;;;5029208;28;21004;-71
2023/06/17 12:10:29;;;;;;;19.10;16.77;;;26.40;90.40;;;;;;5033697;28;20450;-72
2023/06/17 12:12:57;;;;;;;18.57;15.63;;;26.40;90.80;;;;;;5037362;28;20466;-72
2023/06/17 12:15:28;;;;;;;18.70;16.53;;;26.40;90.40;;;;;;5040289;28;20953;-70
2023/06/17 12:17:56;;;;;;;18.20;13.83;;;26.40;90.40;;;;;;5039320;28;20449;-70
2023/06/17 12:20:23;;;;;;;16.80;13.00;;;26.50;90.40;;;;;;5035914;28;20465;-72
2023/06/17 12:22:52;;;;;;;16.40;12.80;;;26.40;90.10;;;;;;5040755;28;20479;-71
2023/06/17 12:25:21;;;;;;;17.83;12.83;;;26.50;90.20;;;;;;5039866;28;20443;-71
2023/06/17 12:27:50;;;;;;;17.27;12.70;;;26.50;89.80;;;;;;5034909;28;20451;-71
2023/06/17 12:30:17;;;;;;;16.40;13.80;;;26.60;89.80;;;;;;5040409;28;20435;-72
2023/06/17 12:32:45;;;;;;;13.43;11.97;;;26.80;89.60;;;;;;5035363;28;20914;-70